Laramie, WY (82051)

6:19 PM MDT on August 24, 2016 (GMT -0600)
Grand View Heights | | Change Station

Elev 7339 ft 41.30 °N, 105.54 °W | Updated 11 minutes ago

Light Rain
Light Rain
58.6 °F
Feels Like 58.6 °F
N
11.4
Wind Variable Wind from ESE

Today
High -- | Low -- °F
--% Chance of Precip.
Yesterday
High -- | Low -- °F
Precip. -- in
Pressure 30.04 in
Visibility 10.0 miles
Clouds Scattered Clouds 5500 ft
Mostly Cloudy 7000 ft
Mostly Cloudy 11000 ft
Dew Point 40 °F
Humidity 50%
Rainfall 0.02 in
Snow Depth Not available.
6:21 AM 7:47 PM
Waning Gibbous, 52% visible
METAR KLAR 242353Z AUTO 14011KT 10SM -RA SCT055 BKN070 BKN110 14/06 A3028 RMK AO2 RAB53 SLP173 P0000 60002 T01390056 10206 20128 51015 TSNO
Pressure 30.04 in
Visibility 10.0 miles
Clouds Scattered Clouds 5500 ft
Mostly Cloudy 7000 ft
Mostly Cloudy 11000 ft
Dew Point 40 °F
Humidity 50%
Rainfall 0.02 in
Snow Depth Not available.
6:21 AM 7:47 PM
Waning Gibbous, 52% visible
METAR KLAR 242353Z AUTO 14011KT 10SM -RA SCT055 BKN070 BKN110 14/06 A3028 RMK AO2 RAB53 SLP173 P0000 60002 T01390056 10206 20128 51015 TSNO

10-Day Weather Forecast

Almanac

Astronomy

Aug. 24, 2016 Rise Set
Actual Time
Civil Twilight
Nautical Twilight
Astronomical Twilight
Moon
Length of Visible Light
Length of Day
Tomorrow will be .
, % of the Moon is Illuminated

Today's Extremes

State Highs State Lows

Community

WunderPhotos

Upload Photos

1,934,745 photos uploaded!

WunderBlog® & News

Nearby

Air Quality

  Air Quality AQ Index Pollutant
Not available.

Snow Depth

Station Depth Elevation

Earthquake Activity

City Distance Mag. Time & Date
Minimum magnitude displayed is 2.5.

Coastal Water Temperatures

Place Temperature

Stations

Nearby Weather Stations

Station Location Temp. Windchill Dew Point Humidity Wind Precip. Elev Updated Type
                   

Watches & Warnings

There are currently no watches in effect.